createdAt,value
2023-02-09T00:00:02.782Z,1024.51
2023-02-09T00:01:02.509Z,1024.48
2023-02-09T00:02:02.502Z,1024.49
2023-02-09T00:03:02.425Z,1024.47
2023-02-09T00:04:02.511Z,1024.47
2023-02-09T00:05:02.362Z,1024.43
2023-02-09T00:06:02.334Z,1024.43
2023-02-09T00:07:02.316Z,1024.40
2023-02-09T00:08:02.269Z,1024.41
2023-02-09T00:09:02.237Z,1024.36
2023-02-09T00:10:02.204Z,1024.39
2023-02-09T00:11:02.173Z,1024.38
2023-02-09T00:12:02.148Z,1024.40
2023-02-09T00:13:02.108Z,1024.36
2023-02-09T00:14:02.076Z,1024.38
2023-02-09T00:15:02.047Z,1024.39
2023-02-09T00:16:02.282Z,1024.40
2023-02-09T00:17:02.010Z,1024.36
2023-02-09T00:18:01.951Z,1024.37
2023-02-09T00:19:01.927Z,1024.39
2023-02-09T00:20:01.893Z,1024.39
2023-02-09T00:21:01.863Z,1024.38
2023-02-09T00:22:01.825Z,1024.34
2023-02-09T00:23:01.799Z,1024.30
2023-02-09T00:24:01.783Z,1024.33
2023-02-09T00:25:01.774Z,1024.35
2023-02-09T00:26:01.700Z,1024.27
2023-02-09T00:27:01.688Z,1024.23
2023-02-09T00:28:01.696Z,1024.22
2023-02-09T00:29:01.605Z,1024.28
2023-02-09T00:30:01.573Z,1024.29
2023-02-09T00:31:01.628Z,1024.25
2023-02-09T00:32:01.604Z,1024.23
2023-02-09T00:33:01.583Z,1024.24
2023-02-09T00:34:01.462Z,1024.28
2023-02-09T00:35:01.426Z,1024.28
2023-02-09T00:36:01.384Z,1024.30
2023-02-09T00:37:01.355Z,1024.30
2023-02-09T00:38:01.320Z,1024.31
2023-02-09T00:39:01.310Z,1024.30
2023-02-09T00:40:01.260Z,1024.28
2023-02-09T00:41:01.229Z,1024.26
2023-02-09T00:42:01.194Z,1024.24
2023-02-09T00:43:01.164Z,1024.26
2023-02-09T00:44:01.133Z,1024.23
2023-02-09T00:45:01.099Z,1024.18
2023-02-09T00:46:01.213Z,1024.19
2023-02-09T00:47:01.061Z,1024.20
2023-02-09T00:48:01.007Z,1024.21
2023-02-09T00:49:00.992Z,1024.23
2023-02-09T00:50:00.940Z,1024.27
2023-02-09T00:51:00.916Z,1024.23
2023-02-09T00:52:00.878Z,1024.24
2023-02-09T00:53:00.846Z,1024.25
2023-02-09T00:54:00.847Z,1024.26
2023-02-09T00:55:00.795Z,1024.27
2023-02-09T00:56:00.750Z,1024.32
2023-02-09T00:57:00.723Z,1024.31
2023-02-09T00:58:00.700Z,1024.34
2023-02-09T00:59:00.660Z,1024.31
2023-02-09T01:00:00.622Z,1024.31
2023-02-09T01:01:00.632Z,1024.32
2023-02-09T01:02:00.562Z,1024.34
2023-02-09T01:03:00.530Z,1024.35
2023-02-09T01:04:00.517Z,1024.31
2023-02-09T01:05:00.659Z,1024.28
2023-02-09T01:06:00.434Z,1024.27
2023-02-09T01:07:00.402Z,1024.32
2023-02-09T01:08:00.368Z,1024.30
2023-02-09T01:09:00.338Z,1024.34
2023-02-09T01:10:00.310Z,1024.36
2023-02-09T01:11:00.279Z,1024.36
2023-02-09T01:12:00.257Z,1024.35
2023-02-09T01:13:00.214Z,1024.33
2023-02-09T01:14:00.184Z,1024.32
2023-02-09T01:15:00.160Z,1024.30
2023-02-09T01:16:00.114Z,1024.29
2023-02-09T01:17:00.170Z,1024.33
2023-02-09T01:18:00.061Z,1024.29
2023-02-09T01:19:00.023Z,1024.35
2023-02-09T01:20:00.092Z,1024.32
2023-02-09T01:20:59.979Z,1024.26
2023-02-09T01:21:59.925Z,1024.27
2023-02-09T01:22:59.895Z,1024.27
2023-02-09T01:23:59.870Z,1024.24
2023-02-09T01:24:59.831Z,1024.22
2023-02-09T01:25:59.798Z,1024.22
2023-02-09T01:26:59.768Z,1024.21
2023-02-09T01:27:59.809Z,1024.22
2023-02-09T01:28:59.705Z,1024.22
2023-02-09T01:29:59.670Z,1024.24
2023-02-09T01:30:59.816Z,1024.31
2023-02-09T01:31:59.822Z,1024.31
2023-02-09T01:32:59.577Z,1024.28
2023-02-09T01:33:59.548Z,1024.28
2023-02-09T01:34:59.535Z,1024.26
2023-02-09T01:35:59.481Z,1024.28
2023-02-09T01:36:59.471Z,1024.27
2023-02-09T01:37:59.419Z,1024.22
2023-02-09T01:38:59.390Z,1024.20
2023-02-09T01:39:59.358Z,1024.19
2023-02-09T01:40:59.326Z,1024.17
2023-02-09T01:41:59.313Z,1024.17
2023-02-09T01:42:59.265Z,1024.14
2023-02-09T01:43:59.238Z,1024.11
2023-02-09T01:44:59.207Z,1024.17
2023-02-09T01:45:59.189Z,1024.22
2023-02-09T01:46:59.140Z,1024.18
2023-02-09T01:47:59.109Z,1024.22
2023-02-09T01:48:59.074Z,1024.20
2023-02-09T01:49:59.046Z,1024.19
2023-02-09T01:50:59.010Z,1024.20
2023-02-09T01:51:58.982Z,1024.20
2023-02-09T01:52:58.967Z,1024.18
2023-02-09T01:53:58.920Z,1024.14
2023-02-09T01:54:58.889Z,1024.09
2023-02-09T01:55:58.855Z,1024.09
2023-02-09T01:56:58.819Z,1024.06
2023-02-09T01:57:58.793Z,1024.08
2023-02-09T01:58:58.758Z,1024.08
2023-02-09T01:59:58.729Z,1024.12
2023-02-09T02:01:00.167Z,1024.11
2023-02-09T02:01:58.663Z,1024.05
2023-02-09T02:02:58.653Z,1024.04
2023-02-09T02:03:58.604Z,1024.01
2023-02-09T02:04:58.575Z,1024.00
2023-02-09T02:05:58.537Z,1023.98
2023-02-09T02:06:58.506Z,1024.03
2023-02-09T02:07:58.473Z,1023.95
2023-02-09T02:08:58.464Z,1023.97
2023-02-09T02:09:58.408Z,1024.00
2023-02-09T02:10:58.380Z,1023.94
2023-02-09T02:11:58.348Z,1023.90
2023-02-09T02:12:58.312Z,1023.90
2023-02-09T02:13:58.317Z,1023.88
2023-02-09T02:14:58.248Z,1023.87
2023-02-09T02:15:58.269Z,1023.86
2023-02-09T02:16:58.184Z,1023.81
2023-02-09T02:17:58.156Z,1023.87
2023-02-09T02:18:58.124Z,1023.85
2023-02-09T02:19:58.104Z,1023.83
2023-02-09T02:20:58.058Z,1023.90
2023-02-09T02:21:58.021Z,1023.90
2023-02-09T02:22:57.987Z,1023.92
2023-02-09T02:23:57.963Z,1023.87
2023-02-09T02:24:57.943Z,1023.91
2023-02-09T02:25:57.895Z,1023.87
2023-02-09T02:26:57.895Z,1023.86
2023-02-09T02:27:57.876Z,1023.84
2023-02-09T02:28:57.796Z,1023.83
2023-02-09T02:29:57.765Z,1023.74
2023-02-09T02:30:57.859Z,1023.78
2023-02-09T02:31:57.740Z,1023.79
2023-02-09T02:32:57.671Z,1023.69
2023-02-09T02:33:57.640Z,1023.74
2023-02-09T02:34:57.606Z,1023.70
2023-02-09T02:35:57.573Z,1023.71
2023-02-09T02:36:57.548Z,1023.71
2023-02-09T02:37:57.510Z,1023.71
2023-02-09T02:38:57.477Z,1023.67
2023-02-09T02:39:57.446Z,1023.70
2023-02-09T02:40:57.430Z,1023.65
2023-02-09T02:41:57.381Z,1023.70
2023-02-09T02:42:57.349Z,1023.67
2023-02-09T02:43:57.318Z,1023.69
2023-02-09T02:44:57.284Z,1023.65
2023-02-09T02:45:57.313Z,1023.64
2023-02-09T02:46:57.226Z,1023.67
2023-02-09T02:47:57.197Z,1023.62
2023-02-09T02:48:57.169Z,1023.60
2023-02-09T02:49:57.134Z,1023.61
2023-02-09T02:50:57.211Z,1023.55
2023-02-09T02:51:57.073Z,1023.56
2023-02-09T02:52:57.036Z,1023.66
2023-02-09T02:53:57.020Z,1023.66
2023-02-09T02:54:56.971Z,1023.59
2023-02-09T02:55:56.943Z,1023.58
2023-02-09T02:56:56.927Z,1023.55
2023-02-09T02:57:56.883Z,1023.55
2023-02-09T02:58:56.848Z,1023.52
2023-02-09T02:59:56.835Z,1023.52
2023-02-09T03:00:56.785Z,1023.48
2023-02-09T03:01:56.810Z,1023.50
2023-02-09T03:02:56.722Z,1023.52
2023-02-09T03:03:56.688Z,1023.54
2023-02-09T03:04:56.695Z,1023.57
2023-02-09T03:05:56.625Z,1023.64
2023-02-09T03:06:56.594Z,1023.66
2023-02-09T03:07:56.561Z,1023.61
2023-02-09T03:08:56.542Z,1023.62
2023-02-09T03:09:56.510Z,1023.59
2023-02-09T03:10:56.471Z,1023.61
2023-02-09T03:11:56.434Z,1023.58
2023-02-09T03:12:56.423Z,1023.58
2023-02-09T03:13:56.369Z,1023.57
2023-02-09T03:14:56.338Z,1023.53
2023-02-09T03:15:56.327Z,1023.60
2023-02-09T03:16:56.273Z,1023.58
2023-02-09T03:17:56.240Z,1023.54
2023-02-09T03:18:56.214Z,1023.55
2023-02-09T03:19:56.180Z,1023.56
2023-02-09T03:20:56.145Z,1023.57
2023-02-09T03:21:56.114Z,1023.50
2023-02-09T03:22:56.079Z,1023.51
2023-02-09T03:23:56.048Z,1023.51
2023-02-09T03:24:56.021Z,1023.48
2023-02-09T03:25:55.985Z,1023.47
2023-02-09T03:26:55.953Z,1023.43
2023-02-09T03:27:55.966Z,1023.44
2023-02-09T03:28:55.907Z,1023.43
2023-02-09T03:29:55.857Z,1023.44
2023-02-09T03:30:55.942Z,1023.41
2023-02-09T03:31:55.850Z,1023.42
2023-02-09T03:32:55.762Z,1023.42
2023-02-09T03:33:55.729Z,1023.40
2023-02-09T03:34:55.701Z,1023.39
2023-02-09T03:35:55.666Z,1023.37
2023-02-09T03:36:55.636Z,1023.43
2023-02-09T03:37:55.599Z,1023.37
2023-02-09T03:38:55.565Z,1023.32
2023-02-09T03:39:55.535Z,1023.33
2023-02-09T03:40:55.501Z,1023.34
2023-02-09T03:41:55.471Z,1023.27
2023-02-09T03:42:55.441Z,1023.30
2023-02-09T03:43:55.409Z,1023.31
2023-02-09T03:44:55.390Z,1023.34
2023-02-09T03:45:55.343Z,1023.32
2023-02-09T03:46:55.345Z,1023.27
2023-02-09T03:47:55.279Z,1023.30
2023-02-09T03:48:55.247Z,1023.28
2023-02-09T03:49:55.213Z,1023.34
2023-02-09T03:50:55.178Z,1023.36
2023-02-09T03:51:55.150Z,1023.32
2023-02-09T03:52:55.118Z,1023.24
2023-02-09T03:53:55.098Z,1023.22
2023-02-09T03:54:55.051Z,1023.23
2023-02-09T03:55:55.021Z,1023.27
2023-02-09T03:56:54.986Z,1023.26
2023-02-09T03:57:54.957Z,1023.23
2023-02-09T03:58:54.924Z,1023.21
2023-02-09T03:59:54.889Z,1023.18
2023-02-09T04:00:54.908Z,1023.24
2023-02-09T04:01:54.823Z,1023.19
2023-02-09T04:02:54.791Z,1023.19
2023-02-09T04:03:54.758Z,1023.17
2023-02-09T04:04:54.727Z,1023.16
2023-02-09T04:05:54.694Z,1023.08
2023-02-09T04:06:54.668Z,1023.11
2023-02-09T04:07:54.645Z,1023.14
2023-02-09T04:08:54.598Z,1023.13
2023-02-09T04:09:54.565Z,1023.15
2023-02-09T04:10:54.548Z,1023.11
2023-02-09T04:11:54.508Z,1023.17
2023-02-09T04:12:54.464Z,1023.13
2023-02-09T04:13:54.438Z,1023.11
2023-02-09T04:14:54.414Z,1023.14
2023-02-09T04:15:54.434Z,1023.10
2023-02-09T04:16:54.357Z,1023.06
2023-02-09T04:17:54.308Z,1023.08
2023-02-09T04:18:54.283Z,1023.03
2023-02-09T04:19:54.246Z,1023.02
2023-02-09T04:20:54.212Z,1023.08
2023-02-09T04:21:54.180Z,1023.02
2023-02-09T04:22:54.145Z,1022.99
2023-02-09T04:23:54.114Z,1022.98
2023-02-09T04:24:54.083Z,1022.98
2023-02-09T04:25:54.049Z,1023.01
2023-02-09T04:26:54.028Z,1023.00
2023-02-09T04:27:54.106Z,1022.97
2023-02-09T04:28:53.954Z,1022.97
2023-02-09T04:29:53.967Z,1022.93
2023-02-09T04:30:53.957Z,1022.92
2023-02-09T04:31:53.954Z,1022.88
2023-02-09T04:32:53.861Z,1022.90
2023-02-09T04:33:53.796Z,1022.89
2023-02-09T04:34:53.761Z,1022.90
2023-02-09T04:35:53.729Z,1022.92
2023-02-09T04:36:53.695Z,1022.94
2023-02-09T04:37:53.664Z,1022.93
2023-02-09T04:38:53.630Z,1022.95
2023-02-09T04:39:53.601Z,1023.04
2023-02-09T04:40:53.566Z,1023.03
2023-02-09T04:41:53.537Z,1023.03
2023-02-09T04:42:53.507Z,1023.13
2023-02-09T04:43:53.471Z,1023.08
2023-02-09T04:44:53.437Z,1023.13
2023-02-09T04:45:53.420Z,1023.12
2023-02-09T04:46:53.373Z,1023.15
2023-02-09T04:47:53.343Z,1023.12
2023-02-09T04:48:53.336Z,1023.16
2023-02-09T04:49:53.278Z,1023.22
2023-02-09T04:50:53.245Z,1023.13
2023-02-09T04:51:53.213Z,1023.17
2023-02-09T04:52:53.181Z,1023.16
2023-02-09T04:53:53.155Z,1023.14
2023-02-09T04:54:53.115Z,1023.18
2023-02-09T04:55:53.098Z,1023.14
2023-02-09T04:56:53.052Z,1023.17
2023-02-09T04:57:53.024Z,1023.10
2023-02-09T04:58:52.989Z,1023.10
2023-02-09T04:59:52.962Z,1023.14
2023-02-09T05:00:52.946Z,1023.11
2023-02-09T05:01:52.894Z,1023.09
2023-02-09T05:02:52.862Z,1023.05
2023-02-09T05:03:52.877Z,1023.07
2023-02-09T05:04:52.818Z,1023.08
2023-02-09T05:05:52.764Z,1023.08
2023-02-09T05:06:52.738Z,1023.11
2023-02-09T05:07:52.708Z,1023.08
2023-02-09T05:08:52.669Z,1023.04
2023-02-09T05:09:52.634Z,1023.02
2023-02-09T05:10:52.613Z,1023.00
2023-02-09T05:11:52.572Z,1022.91
2023-02-09T05:12:52.535Z,1022.86
2023-02-09T05:13:52.518Z,1022.84
2023-02-09T05:14:52.475Z,1022.78
2023-02-09T05:15:52.450Z,1022.70
2023-02-09T05:16:52.429Z,1022.66
2023-02-09T05:17:52.378Z,1022.62
2023-02-09T05:18:52.342Z,1022.61
2023-02-09T05:19:52.317Z,1022.62
2023-02-09T05:20:52.297Z,1022.62
2023-02-09T05:21:52.248Z,1022.59
2023-02-09T05:22:52.213Z,1022.63
2023-02-09T05:23:52.196Z,1022.61
2023-02-09T05:24:52.147Z,1022.63
2023-02-09T05:25:52.132Z,1022.65
2023-02-09T05:26:52.084Z,1022.67
2023-02-09T05:27:52.087Z,1022.66
2023-02-09T05:28:52.025Z,1022.68
2023-02-09T05:29:51.991Z,1022.71
2023-02-09T05:30:51.986Z,1022.69
2023-02-09T05:31:51.989Z,1022.75
2023-02-09T05:32:51.887Z,1022.75
2023-02-09T05:33:51.860Z,1022.80
2023-02-09T05:34:51.823Z,1022.77
2023-02-09T05:35:51.811Z,1022.81
2023-02-09T05:36:51.775Z,1022.84
2023-02-09T05:37:51.730Z,1022.82
2023-02-09T05:38:51.693Z,1022.84
2023-02-09T05:39:51.670Z,1022.82
2023-02-09T05:40:51.717Z,1022.82
2023-02-09T05:41:51.597Z,1022.87
2023-02-09T05:42:51.566Z,1022.81
2023-02-09T05:43:51.533Z,1022.84
2023-02-09T05:44:51.498Z,1022.80
2023-02-09T05:45:51.499Z,1022.79
2023-02-09T05:46:51.433Z,1022.75
2023-02-09T05:47:51.407Z,1022.80
2023-02-09T05:48:51.372Z,1022.84
2023-02-09T05:49:51.339Z,1022.81
2023-02-09T05:50:51.308Z,1022.82
2023-02-09T05:51:51.278Z,1022.80
2023-02-09T05:52:51.271Z,1022.86
2023-02-09T05:53:51.209Z,1022.83
2023-02-09T05:54:51.178Z,1022.84
2023-02-09T05:55:51.144Z,1022.85
2023-02-09T05:56:51.108Z,1022.84
2023-02-09T05:57:51.078Z,1022.86
2023-02-09T05:58:51.044Z,1022.88
2023-02-09T05:59:51.014Z,1022.88
2023-02-09T06:00:50.977Z,1022.84
2023-02-09T06:01:50.947Z,1022.86
2023-02-09T06:02:50.912Z,1022.87
2023-02-09T06:03:50.925Z,1022.87
2023-02-09T06:04:50.848Z,1022.89
2023-02-09T06:05:50.816Z,1022.89
2023-02-09T06:06:50.784Z,1022.88
2023-02-09T06:07:50.758Z,1022.96
2023-02-09T06:08:50.740Z,1022.93
2023-02-09T06:09:50.692Z,1022.93
2023-02-09T06:10:50.658Z,1023.00
2023-02-09T06:11:50.622Z,1023.02
2023-02-09T06:12:50.590Z,1023.04
2023-02-09T06:13:50.556Z,1023.08
2023-02-09T06:14:50.527Z,1023.06
2023-02-09T06:15:50.507Z,1023.13
2023-02-09T06:16:50.460Z,1023.12
2023-02-09T06:17:50.428Z,1023.14
2023-02-09T06:18:50.397Z,1023.11
2023-02-09T06:19:50.370Z,1023.12
2023-02-09T06:20:50.331Z,1023.17
2023-02-09T06:21:50.297Z,1023.17
2023-02-09T06:22:50.267Z,1023.20
2023-02-09T06:23:50.236Z,1023.27
2023-02-09T06:24:50.246Z,1023.21
2023-02-09T06:25:50.171Z,1023.29
2023-02-09T06:26:50.142Z,1023.31
2023-02-09T06:27:50.207Z,1023.39
2023-02-09T06:28:50.078Z,1023.39
2023-02-09T06:29:50.041Z,1023.46
2023-02-09T06:30:50.642Z,1023.42
2023-02-09T06:31:50.180Z,1023.44
2023-02-09T06:32:49.954Z,1023.44
2023-02-09T06:33:49.912Z,1023.45
2023-02-09T06:34:49.914Z,1023.47
2023-02-09T06:35:52.083Z,1023.42
2023-02-09T06:36:49.818Z,1023.39
2023-02-09T06:37:49.797Z,1023.35
2023-02-09T06:38:49.775Z,1023.27
2023-02-09T06:39:49.725Z,1023.23
2023-02-09T06:40:49.715Z,1023.23
2023-02-09T06:41:49.665Z,1023.18
2023-02-09T06:42:49.630Z,1023.19
2023-02-09T06:43:49.602Z,1023.21
2023-02-09T06:44:49.562Z,1023.27
2023-02-09T06:45:49.638Z,1023.31
2023-02-09T06:46:49.506Z,1023.34
2023-02-09T06:47:49.469Z,1023.41
2023-02-09T06:48:49.440Z,1023.43
2023-02-09T06:49:49.467Z,1023.49
2023-02-09T06:50:49.375Z,1023.39
2023-02-09T06:51:49.341Z,1023.42
2023-02-09T06:52:49.309Z,1023.43
2023-02-09T06:53:49.273Z,1023.43
2023-02-09T06:54:49.248Z,1023.37
2023-02-09T06:55:49.211Z,1023.43
2023-02-09T06:56:49.200Z,1023.34
2023-02-09T06:57:49.157Z,1023.35
2023-02-09T06:58:49.133Z,1023.29
2023-02-09T06:59:49.084Z,1023.30
2023-02-09T07:00:49.056Z,1023.31
2023-02-09T07:01:49.054Z,1023.27
2023-02-09T07:02:49.050Z,1023.36
2023-02-09T07:03:48.956Z,1023.29
2023-02-09T07:04:48.922Z,1023.31
2023-02-09T07:05:48.892Z,1023.27
2023-02-09T07:06:48.869Z,1023.31
2023-02-09T07:07:48.826Z,1023.30
2023-02-09T07:08:48.798Z,1023.33
2023-02-09T07:09:48.760Z,1023.37
2023-02-09T07:10:48.735Z,1023.35
2023-02-09T07:11:48.698Z,1023.37
2023-02-09T07:12:48.686Z,1023.37
2023-02-09T07:13:48.653Z,1023.37
2023-02-09T07:14:48.601Z,1023.41
2023-02-09T07:15:48.699Z,1023.38
2023-02-09T07:16:48.536Z,1023.42
2023-02-09T07:17:48.503Z,1023.41
2023-02-09T07:18:48.477Z,1023.40
2023-02-09T07:19:48.441Z,1023.43
2023-02-09T07:20:48.408Z,1023.41
2023-02-09T07:21:48.374Z,1023.37
2023-02-09T07:22:48.349Z,1023.39
2023-02-09T07:23:48.317Z,1023.43
2023-02-09T07:24:48.279Z,1023.37
2023-02-09T07:25:48.247Z,1023.42
2023-02-09T07:26:48.373Z,1023.40
2023-02-09T07:27:48.185Z,1023.46
2023-02-09T07:28:48.247Z,1023.51
2023-02-09T07:29:48.118Z,1023.47
2023-02-09T07:30:48.612Z,1023.50
2023-02-09T07:31:48.178Z,1023.46
2023-02-09T07:32:48.025Z,1023.49
2023-02-09T07:33:47.993Z,1023.47
2023-02-09T07:34:47.961Z,1023.51
2023-02-09T07:35:47.930Z,1023.52
2023-02-09T07:36:48.115Z,1023.51
2023-02-09T07:37:47.858Z,1023.44
2023-02-09T07:38:47.828Z,1023.42
2023-02-09T07:39:47.792Z,1023.42
2023-02-09T07:40:47.888Z,1023.45
2023-02-09T07:41:47.729Z,1023.43
2023-02-09T07:42:47.724Z,1023.48
2023-02-09T07:43:47.684Z,1023.44
2023-02-09T07:44:47.650Z,1023.40
2023-02-09T07:45:47.893Z,1023.47
2023-02-09T07:46:47.640Z,1023.49
2023-02-09T07:47:47.536Z,1023.49
2023-02-09T07:48:47.505Z,1023.50
2023-02-09T07:49:47.475Z,1023.48
2023-02-09T07:50:47.709Z,1023.50
2023-02-09T07:51:47.403Z,1023.51
2023-02-09T07:52:47.378Z,1023.53
2023-02-09T07:53:47.338Z,1023.52
2023-02-09T07:54:47.311Z,1023.56
2023-02-09T07:55:47.609Z,1023.59
2023-02-09T07:56:47.242Z,1023.62
2023-02-09T07:57:47.214Z,1023.64
2023-02-09T07:58:47.180Z,1023.73
2023-02-09T07:59:47.145Z,1023.79
2023-02-09T08:00:47.145Z,1023.79
2023-02-09T08:01:47.210Z,1023.83
2023-02-09T08:02:47.061Z,1023.81
2023-02-09T08:03:47.021Z,1023.78
2023-02-09T08:04:47.041Z,1023.81
2023-02-09T08:05:47.568Z,1023.80
2023-02-09T08:06:46.930Z,1023.82
2023-02-09T08:07:46.891Z,1023.83
2023-02-09T08:08:46.856Z,1023.76
2023-02-09T08:09:46.824Z,1023.73
2023-02-09T08:10:46.793Z,1023.75
2023-02-09T08:11:46.827Z,1023.80
2023-02-09T08:12:46.749Z,1023.82
2023-02-09T08:13:46.696Z,1023.83
2023-02-09T08:14:46.667Z,1023.79
2023-02-09T08:15:47.246Z,1023.79
2023-02-09T08:16:46.625Z,1023.81
2023-02-09T08:17:46.654Z,1023.76
2023-02-09T08:18:46.612Z,1023.74
2023-02-09T08:19:46.506Z,1023.77
2023-02-09T08:20:46.480Z,1023.79
2023-02-09T08:21:46.457Z,1023.76
2023-02-09T08:22:46.472Z,1023.78
2023-02-09T08:23:46.379Z,1023.81
2023-02-09T08:24:46.350Z,1023.80
2023-02-09T08:25:46.674Z,1023.81
2023-02-09T08:26:46.307Z,1023.85
2023-02-09T08:27:46.269Z,1023.86
2023-02-09T08:28:46.345Z,1023.87
2023-02-09T08:29:47.963Z,1023.83
2023-02-09T08:30:46.170Z,1023.85
2023-02-09T08:31:46.193Z,1023.87
2023-02-09T08:32:46.121Z,1023.87
2023-02-09T08:33:46.063Z,1023.81
2023-02-09T08:34:46.032Z,1023.76
2023-02-09T08:35:46.396Z,1023.80
2023-02-09T08:36:45.968Z,1023.85
2023-02-09T08:37:45.934Z,1023.82
2023-02-09T08:38:45.904Z,1023.80
2023-02-09T08:39:46.074Z,1023.85
2023-02-09T08:40:45.840Z,1023.85
2023-02-09T08:41:46.425Z,1023.88
2023-02-09T08:42:45.872Z,1023.86
2023-02-09T08:43:45.746Z,1023.87
2023-02-09T08:44:45.744Z,1023.84
2023-02-09T08:45:46.237Z,1023.92
2023-02-09T08:46:45.902Z,1023.92
2023-02-09T08:47:45.629Z,1024.01
2023-02-09T08:48:45.666Z,1023.98
2023-02-09T08:49:45.555Z,1023.91
2023-02-09T08:50:45.529Z,1023.93
2023-02-09T08:51:45.520Z,1023.89
2023-02-09T08:52:45.463Z,1023.88
2023-02-09T08:53:45.430Z,1023.91
2023-02-09T08:54:45.399Z,1023.90
2023-02-09T08:55:45.818Z,1023.90
2023-02-09T08:56:45.350Z,1023.90
2023-02-09T08:57:45.320Z,1023.89
2023-02-09T08:58:45.282Z,1023.90
2023-02-09T08:59:45.243Z,1023.93
2023-02-09T09:00:45.240Z,1023.96
2023-02-09T09:01:45.180Z,1023.96
2023-02-09T09:02:45.162Z,1023.99
2023-02-09T09:03:45.189Z,1023.99
2023-02-09T09:04:45.140Z,1024.03
2023-02-09T09:05:45.352Z,1023.97
2023-02-09T09:06:45.093Z,1023.87
2023-02-09T09:07:44.991Z,1023.81
2023-02-09T09:08:44.965Z,1023.87
2023-02-09T09:09:44.959Z,1023.78
2023-02-09T09:10:44.975Z,1023.84
2023-02-09T09:11:44.880Z,1023.79
2023-02-09T09:12:44.842Z,1023.87
2023-02-09T09:13:44.807Z,1023.89
2023-02-09T09:14:44.804Z,1023.87
2023-02-09T09:15:45.244Z,1023.81
2023-02-09T09:16:44.794Z,1023.78
2023-02-09T09:17:44.689Z,1023.74
2023-02-09T09:18:44.732Z,1023.72
2023-02-09T09:19:44.632Z,1023.75
2023-02-09T09:20:44.620Z,1023.65
2023-02-09T09:21:44.573Z,1023.60
2023-02-09T09:22:44.555Z,1023.56
2023-02-09T09:23:44.498Z,1023.58
2023-02-09T09:24:44.467Z,1023.54
2023-02-09T09:25:44.926Z,1023.54
2023-02-09T09:26:44.481Z,1023.53
2023-02-09T09:27:44.379Z,1023.52
2023-02-09T09:28:44.374Z,1023.50
2023-02-09T09:29:44.413Z,1023.60
2023-02-09T09:30:44.370Z,1023.65
2023-02-09T09:31:44.382Z,1023.67
2023-02-09T09:32:44.350Z,1023.60
2023-02-09T09:33:44.204Z,1023.49
2023-02-09T09:34:44.237Z,1023.49
2023-02-09T09:35:44.478Z,1023.49
2023-02-09T09:36:44.109Z,1023.60
2023-02-09T09:37:44.080Z,1023.66
2023-02-09T09:38:44.057Z,1023.63
2023-02-09T09:39:43.990Z,1023.57
2023-02-09T09:40:43.986Z,1023.54
2023-02-09T09:41:44.030Z,1023.50
2023-02-09T09:42:43.988Z,1023.53
2023-02-09T09:43:43.892Z,1023.57
2023-02-09T09:44:46.218Z,1023.63
2023-02-09T09:45:44.318Z,1023.64
2023-02-09T09:46:43.788Z,1023.67
2023-02-09T09:47:43.883Z,1023.70
2023-02-09T09:48:43.742Z,1023.68
2023-02-09T09:49:43.710Z,1023.64
2023-02-09T09:50:43.773Z,1023.58
2023-02-09T09:51:43.647Z,1023.61
2023-02-09T09:52:43.611Z,1023.59
2023-02-09T09:53:43.614Z,1023.61
2023-02-09T09:54:43.598Z,1023.62
2023-02-09T09:55:43.489Z,1023.64
2023-02-09T09:56:43.483Z,1023.64
2023-02-09T09:57:43.497Z,1023.65
2023-02-09T09:58:43.519Z,1023.62
2023-02-09T09:59:43.452Z,1023.67
2023-02-09T10:00:43.490Z,1023.58
2023-02-09T10:01:43.322Z,1023.59
2023-02-09T10:02:43.353Z,1023.58
2023-02-09T10:03:43.252Z,1023.59
2023-02-09T10:04:43.294Z,1023.60
2023-02-09T10:05:43.543Z,1023.61
2023-02-09T10:06:43.223Z,1023.65
2023-02-09T10:07:43.148Z,1023.63
2023-02-09T10:08:43.150Z,1023.59
2023-02-09T10:09:43.130Z,1023.59
2023-02-09T10:10:43.335Z,1023.61
2023-02-09T10:11:43.060Z,1023.60
2023-02-09T10:12:43.033Z,1023.59
2023-02-09T10:13:43.013Z,1023.59
2023-02-09T10:14:43.046Z,1023.62
2023-02-09T10:15:42.977Z,1023.62
2023-02-09T10:16:42.875Z,1023.65
2023-02-09T10:17:42.881Z,1023.67
2023-02-09T10:18:42.831Z,1023.70
2023-02-09T10:19:42.834Z,1023.75
2023-02-09T10:20:42.776Z,1023.79
2023-02-09T10:21:42.753Z,1023.75
2023-02-09T10:22:42.749Z,1023.75
2023-02-09T10:23:42.704Z,1023.79
2023-02-09T10:24:42.686Z,1023.80
2023-02-09T10:25:42.638Z,1023.85
2023-02-09T10:26:42.592Z,1023.93
2023-02-09T10:27:42.624Z,1023.89
2023-02-09T10:28:42.505Z,1023.95
2023-02-09T10:29:42.564Z,1023.95
2023-02-09T10:30:42.599Z,1023.98
2023-02-09T10:31:42.876Z,1023.95
2023-02-09T10:32:42.401Z,1023.95
2023-02-09T10:33:42.370Z,1023.91
2023-02-09T10:34:42.333Z,1023.91
2023-02-09T10:35:42.274Z,1023.94
2023-02-09T10:36:42.323Z,1023.95
2023-02-09T10:37:42.275Z,1023.96
2023-02-09T10:38:42.266Z,1024.08
2023-02-09T10:39:42.152Z,1024.10
2023-02-09T10:40:42.195Z,1024.03
2023-02-09T10:41:42.192Z,1024.00
2023-02-09T10:42:42.091Z,1023.95
2023-02-09T10:43:42.049Z,1023.93
2023-02-09T10:44:42.067Z,1023.93
2023-02-09T10:45:42.070Z,1024.00
2023-02-09T10:46:42.129Z,1024.00
2023-02-09T10:47:41.992Z,1023.98
2023-02-09T10:48:41.933Z,1023.96
2023-02-09T10:49:41.907Z,1023.98
2023-02-09T10:50:41.885Z,1023.98
2023-02-09T10:51:41.880Z,1024.08
2023-02-09T10:52:41.818Z,1024.06
2023-02-09T10:53:41.870Z,1024.01
2023-02-09T10:54:41.710Z,1023.98
2023-02-09T10:55:41.708Z,1023.88
2023-02-09T10:56:41.663Z,1023.91
2023-02-09T10:57:41.616Z,1023.89
2023-02-09T10:58:41.657Z,1023.83
2023-02-09T10:59:41.576Z,1023.86
2023-02-09T11:00:41.609Z,1023.91
2023-02-09T11:01:41.616Z,1023.90
2023-02-09T11:02:41.503Z,1023.92
2023-02-09T11:03:41.533Z,1023.89
2023-02-09T11:04:41.538Z,1023.93
2023-02-09T11:05:41.453Z,1023.90
2023-02-09T11:06:41.364Z,1023.92
2023-02-09T11:07:41.328Z,1023.92
2023-02-09T11:08:41.297Z,1023.89
2023-02-09T11:09:41.295Z,1023.97
2023-02-09T11:10:41.247Z,1023.96
2023-02-09T11:11:41.289Z,1023.97
2023-02-09T11:12:41.217Z,1023.98
2023-02-09T11:13:41.200Z,1023.98
2023-02-09T11:14:41.127Z,1023.96
2023-02-09T11:15:41.163Z,1023.91
2023-02-09T11:16:41.067Z,1023.90
2023-02-09T11:17:41.042Z,1023.99
2023-02-09T11:18:41.013Z,1024.03
2023-02-09T11:19:40.986Z,1024.00
2023-02-09T11:20:40.961Z,1024.01
2023-02-09T11:21:40.927Z,1023.94
2023-02-09T11:22:40.893Z,1023.99
2023-02-09T11:23:40.867Z,1023.96
2023-02-09T11:24:40.836Z,1023.91
2023-02-09T11:25:40.808Z,1023.88
2023-02-09T11:26:40.781Z,1023.78
2023-02-09T11:27:40.757Z,1023.72
2023-02-09T11:28:40.745Z,1023.75
2023-02-09T11:29:40.703Z,1023.76
2023-02-09T11:30:40.721Z,1023.75
2023-02-09T11:31:40.654Z,1023.65
2023-02-09T11:32:40.614Z,1023.62
2023-02-09T11:33:40.589Z,1023.58
2023-02-09T11:34:40.565Z,1023.64
2023-02-09T11:35:40.528Z,1023.63
2023-02-09T11:36:40.577Z,1023.56
2023-02-09T11:37:40.487Z,1023.59
2023-02-09T11:38:40.438Z,1023.58
2023-02-09T11:39:40.409Z,1023.61
2023-02-09T11:40:40.379Z,1023.55
2023-02-09T11:41:40.352Z,1023.58
2023-02-09T11:42:40.324Z,1023.55
2023-02-09T11:43:40.293Z,1023.50
2023-02-09T11:44:40.286Z,1023.46
2023-02-09T11:45:40.270Z,1023.37
2023-02-09T11:46:40.265Z,1023.38
2023-02-09T11:47:40.179Z,1023.38
2023-02-09T11:48:40.145Z,1023.37
2023-02-09T11:49:40.123Z,1023.41
2023-02-09T11:50:40.084Z,1023.40
2023-02-09T11:51:40.060Z,1023.38
2023-02-09T11:52:40.037Z,1023.37
2023-02-09T11:53:40.007Z,1023.38
2023-02-09T11:54:39.968Z,1023.37
2023-02-09T11:55:39.947Z,1023.43
2023-02-09T11:56:41.926Z,1023.45
2023-02-09T11:57:39.882Z,1023.48
2023-02-09T11:58:39.852Z,1023.48
2023-02-09T11:59:39.827Z,1023.48
2023-02-09T12:00:52.063Z,1023.47
2023-02-09T12:01:39.769Z,1023.49
2023-02-09T12:02:39.749Z,1023.43
2023-02-09T12:03:39.708Z,1023.46
2023-02-09T12:04:39.690Z,1023.44